Time;durP1;ratioP1;P1;durP2;ratioP2;P2;SDS_P1;SDS_P2;PMS_P1;PMS_P2;Temp;Humidity;BMP_temperature;BMP_pressure;BME280_temperature;BME280_humidity;BME280_pressure;Samples;Min_cycle;Max_cycle;Signal;HPM_P1;HPM_P2
2024/04/22 00:00:57;;;;;;;2.60;2.40;;;;;;;5.87;100.00;102636.19;7711034;22;20266;-65
2024/04/22 00:04:22;;;;;;;4.70;3.00;;;;;;;5.77;100.00;102635.66;7724050;22;20290;-65
2024/04/22 00:07:41;;;;;;;3.23;2.30;;;;;;;5.74;100.00;102633.09;7715287;22;20286;-65
2024/04/22 00:11:04;;;;;;;2.50;2.30;;;;;;;5.88;100.00;102633.47;7713720;22;20479;-65
2024/04/22 00:14:26;;;;;;;3.07;2.47;;;;;;;5.90;100.00;102631.59;7713728;22;20281;-67
2024/04/22 00:17:46;;;;;;;3.23;2.87;;;;;;;5.79;100.00;102633.81;7710609;22;20273;-65
2024/04/22 00:21:11;;;;;;;3.17;2.73;;;;;;;5.76;100.00;102630.38;7709111;22;20963;-65
2024/04/22 00:24:30;;;;;;;3.00;2.63;;;;;;;5.67;100.00;102631.63;7728729;22;20689;-65
2024/04/22 00:27:53;;;;;;;3.47;2.73;;;;;;;5.72;100.00;102637.66;7715439;22;20270;-65
2024/04/22 00:31:12;;;;;;;2.73;2.53;;;;;;;5.73;100.00;102638.53;7701795;22;20274;-64
2024/04/22 00:34:35;;;;;;;4.77;2.20;;;;;;;5.72;100.00;102634.09;7702731;22;20320;-65
2024/04/22 00:38:01;;;;;;;2.57;2.17;;;;;;;5.61;100.00;102629.22;7736075;22;20270;-64
2024/04/22 00:41:25;;;;;;;2.40;2.30;;;;;;;5.53;100.00;102629.50;7724927;22;20282;-64
2024/04/22 00:44:48;;;;;;;2.57;2.30;;;;;;;5.54;100.00;102633.94;7727488;22;20266;-64
2024/04/22 00:48:07;;;;;;;3.00;2.70;;;;;;;5.48;100.00;102626.16;7719031;22;20440;-65
2024/04/22 00:51:30;;;;;;;3.57;2.10;;;;;;;5.52;100.00;102626.88;7713185;22;20282;-65
2024/04/22 00:54:53;;;;;;;4.70;3.83;;;;;;;5.57;100.00;102625.75;7728173;22;20281;-65
2024/04/22 00:58:15;;;;;;;3.40;3.10;;;;;;;5.54;100.00;102631.25;7726787;22;20266;-65
2024/04/22 01:01:41;;;;;;;2.50;2.27;;;;;;;5.53;100.00;102626.81;7703494;22;20277;-64
2024/04/22 01:05:01;;;;;;;2.30;1.77;;;;;;;5.50;100.00;102620.72;7711736;22;20262;-65
2024/04/22 01:08:24;;;;;;;2.70;2.40;;;;;;;5.42;100.00;102622.84;7726071;22;20503;-65
2024/04/22 01:11:50;;;;;;;3.00;2.70;;;;;;;5.43;100.00;102620.09;7717118;22;20282;-65
2024/04/22 01:15:10;;;;;;;3.27;2.30;;;;;;;5.32;100.00;102627.66;7711671;22;20288;-65
2024/04/22 01:18:33;;;;;;;2.47;2.23;;;;;;;5.37;100.00;102616.78;7723160;22;20266;-65
2024/04/22 01:21:57;;;;;;;1.83;1.73;;;;;;;5.14;100.00;102617.69;7717616;22;20278;-64
2024/04/22 01:25:18;;;;;;;2.63;2.43;;;;;;;5.28;100.00;102614.47;7719846;22;20273;-66
2024/04/22 01:28:40;;;;;;;2.80;2.53;;;;;;;5.13;100.00;102613.25;7727901;22;20574;-65
2024/04/22 01:32:00;;;;;;;2.90;2.60;;;;;;;5.12;100.00;102608.84;7710137;22;20266;-65
2024/04/22 01:35:31;;;;;;;3.50;2.80;;;;;;;5.05;100.00;102611.84;7718838;22;20323;-65
2024/04/22 01:38:54;;;;;;;2.60;2.03;;;;;;;4.98;100.00;102597.84;7727593;22;20318;-65
2024/04/22 01:42:16;;;;;;;2.47;2.27;;;;;;;4.90;100.00;102596.38;7711037;22;21134;-65
2024/04/22 01:45:36;;;;;;;2.30;2.20;;;;;;;4.95;100.00;102605.94;7707748;22;20266;-65
2024/04/22 01:48:58;;;;;;;3.10;2.17;;;;;;;4.98;100.00;102596.94;7722589;22;20277;-65
2024/04/22 01:52:20;;;;;;;10.03;3.03;;;;;;;5.05;100.00;102598.47;7712893;22;20278;-65
2024/04/22 01:55:45;;;;;;;2.40;2.20;;;;;;;5.08;100.00;102601.00;7715276;22;20554;-66
2024/04/22 01:59:07;;;;;;;4.13;2.80;;;;;;;5.05;100.00;102601.16;7744244;22;20802;-66
2024/04/22 02:02:27;;;;;;;3.53;2.00;;;;;;;5.08;100.00;102601.00;7707784;22;20266;-66
2024/04/22 02:05:49;;;;;;;3.37;3.07;;;;;;;5.20;100.00;102600.53;7714307;22;20278;-65
2024/04/22 02:09:09;;;;;;;3.90;2.20;;;;;;;5.03;100.00;102597.66;7726578;22;20282;-64
2024/04/22 02:12:34;;;;;;;2.37;2.20;;;;;;;4.98;100.00;102604.97;7717931;22;20297;-65
2024/04/22 02:15:53;;;;;;;2.80;2.10;;;;;;;5.08;100.00;102598.34;7688966;22;20270;-65
2024/04/22 02:19:16;;;;;;;4.73;3.53;;;;;;;5.11;100.00;102601.75;7721871;22;20266;-65
2024/04/22 02:22:35;;;;;;;5.10;4.60;;;;;;;5.06;100.00;102601.06;7713249;22;20305;-65
2024/04/22 02:25:58;;;;;;;4.93;4.50;;;;;;;4.99;100.00;102594.22;7715092;22;20293;-65
2024/04/22 02:29:22;;;;;;;8.07;5.00;;;;;;;5.02;100.00;102595.91;7725326;22;20269;-65
2024/04/22 02:32:42;;;;;;;6.67;5.97;;;;;;;4.93;100.00;102604.25;7700661;22;20278;-65
2024/04/22 02:36:04;;;;;;;9.53;7.50;;;;;;;4.77;100.00;102591.50;7711548;22;20602;-65
2024/04/22 02:39:26;;;;;;;9.90;7.30;;;;;;;4.90;100.00;102588.38;7725602;22;20570;-64
2024/04/22 02:42:49;;;;;;;9.63;7.77;;;;;;;5.01;100.00;102591.47;7715139;22;20274;-65
2024/04/22 02:46:13;;;;;;;10.07;9.03;;;;;;;4.83;100.00;102585.94;7703013;22;20274;-65
2024/04/22 02:49:33;;;;;;;10.33;9.33;;;;;;;4.85;100.00;102583.19;7723207;22;20273;-65
2024/04/22 02:52:55;;;;;;;11.53;9.73;;;;;;;4.86;100.00;102579.56;7712063;22;20310;-64
2024/04/22 02:56:15;;;;;;;13.33;9.37;;;;;;;4.90;100.00;102577.69;7716457;22;20269;-66
2024/04/22 02:59:37;;;;;;;10.03;8.57;;;;;;;4.73;100.00;102587.19;7727865;22;20265;-66
2024/04/22 03:03:02;;;;;;;8.67;7.07;;;;;;;4.78;100.00;102579.00;7694452;22;20265;-66
2024/04/22 03:06:25;;;;;;;9.50;7.47;;;;;;;4.53;100.00;102573.69;7715035;22;20657;-64
2024/04/22 03:09:47;;;;;;;9.43;6.93;;;;;;;4.53;100.00;102576.38;7727867;22;20266;-65
2024/04/22 03:13:11;;;;;;;6.60;6.00;;;;;;;4.58;100.00;102569.06;7720625;22;20313;-65
2024/04/22 03:16:30;;;;;;;8.30;7.30;;;;;;;4.55;100.00;102568.28;7710167;22;20273;-63
2024/04/22 03:19:55;;;;;;;8.90;6.40;;;;;;;4.53;100.00;102564.81;7725691;22;20294;-65
2024/04/22 03:23:18;;;;;;;9.97;8.50;;;;;;;4.58;100.00;102558.38;7725706;22;20266;-66
2024/04/22 03:26:40;;;;;;;5.77;5.23;;;;;;;4.34;100.00;102566.41;7717232;22;20301;-66
2024/04/22 03:30:00;;;;;;;5.97;5.13;;;;;;;4.38;100.00;102558.22;7728080;22;20285;-65
2024/04/22 03:33:22;;;;;;;6.73;6.13;;;;;;;4.27;100.00;102559.56;7719567;22;20324;-65
2024/04/22 03:36:47;;;;;;;6.77;5.23;;;;;;;4.10;100.00;102556.59;7715787;22;20269;-65
2024/04/22 03:40:10;;;;;;;5.47;4.73;;;;;;;4.01;100.00;102555.13;7719693;22;20301;-65
2024/04/22 03:43:33;;;;;;;4.33;3.93;;;;;;;3.83;100.00;102553.97;7729113;22;20266;-65
2024/04/22 03:50:35;;;;;;;4.70;3.63;;;;;;;3.88;100.00;102546.66;7716709;22;20317;-64
2024/04/22 03:54:00;;;;;;;4.43;3.63;;;;;;;4.26;100.00;102547.13;7730155;22;20318;-65
2024/04/22 03:57:22;;;;;;;3.37;3.07;;;;;;;4.29;100.00;102555.91;7716625;22;20280;-64
2024/04/22 04:00:44;;;;;;;3.73;3.30;;;;;;;4.44;100.00;102552.69;7713748;22;20270;-66
2024/04/22 04:04:04;;;;;;;29.87;23.40;;;;;;;4.50;100.00;102556.91;7724680;22;20318;-66
2024/04/22 04:07:26;;;;;;;24.27;21.67;;;;;;;4.57;100.00;102547.75;7714722;22;20672;-65
2024/04/22 04:10:55;;;;;;;4.43;3.70;;;;;;;4.62;100.00;102552.00;7716244;22;20274;-65
2024/04/22 04:14:17;;;;;;;3.57;3.27;;;;;;;4.62;100.00;102557.34;7728613;22;20305;-64
2024/04/22 04:17:40;;;;;;;10.37;9.33;;;;;;;4.58;100.00;102553.03;7709938;22;20273;-65
2024/04/22 04:21:00;;;;;;;6.27;4.70;;;;;;;4.55;100.00;102553.16;7713735;22;20278;-65
2024/04/22 04:24:22;;;;;;;8.67;7.67;;;;;;;4.46;100.00;102558.84;7729186;22;20269;-65
2024/04/22 04:27:48;;;;;;;11.77;10.03;;;;;;;4.48;100.00;102553.44;7715929;22;20274;-64
2024/04/22 04:31:07;;;;;;;4.53;3.93;;;;;;;4.24;100.00;102555.19;7711429;22;20265;-65
2024/04/22 04:34:29;;;;;;;27.97;22.77;;;;;;;4.52;100.00;102561.28;7725985;22;20594;-65
2024/04/22 04:37:52;;;;;;;10.40;8.97;;;;;;;4.63;100.00;102553.72;7708949;22;20538;-65
2024/04/22 04:41:15;;;;;;;4.33;3.67;;;;;;;4.75;100.00;102555.97;7744264;22;20521;-65
2024/04/22 04:44:39;;;;;;;7.13;2.93;;;;;;;4.76;100.00;102555.00;7724925;22;20278;-65
2024/04/22 04:48:02;;;;;;;3.57;2.40;;;;;;;4.73;100.00;102552.47;7704343;22;20282;-65
2024/04/22 04:51:21;;;;;;;3.60;3.13;;;;;;;4.39;100.00;102562.66;7712956;22;20277;-65
2024/04/22 04:54:44;;;;;;;3.70;3.03;;;;;;;4.79;100.00;102556.72;7726614;22;20262;-65
2024/04/22 04:58:08;;;;;;;3.43;2.90;;;;;;;4.37;100.00;102550.28;7714765;22;21065;-65
2024/04/22 05:01:33;;;;;;;4.80;3.47;;;;;;;4.17;100.00;102555.47;7707261;22;20265;-65
2024/04/22 05:04:55;;;;;;;2.90;2.20;;;;;;;3.95;100.00;102552.66;7723811;22;20287;-64
2024/04/22 05:08:17;;;;;;;2.83;1.87;;;;;;;3.92;100.00;102556.31;7720197;22;20617;-65
2024/04/22 05:11:37;;;;;;;2.43;1.80;;;;;;;3.93;100.00;102552.72;7704827;22;20274;-67
2024/04/22 05:15:00;;;;;;;4.20;2.10;;;;;;;4.01;100.00;102544.44;7721061;22;20270;-64
2024/04/22 05:18:22;;;;;;;3.83;2.27;;;;;;;4.15;100.00;102546.66;7714070;22;20292;-66
2024/04/22 05:21:45;;;;;;;2.10;1.90;;;;;;;4.02;100.00;102548.88;7711932;22;20274;-65
2024/04/22 05:25:08;;;;;;;2.57;2.37;;;;;;;4.39;100.00;102541.28;7716223;22;20278;-66
2024/04/22 05:28:30;;;;;;;5.20;3.10;;;;;;;4.36;100.00;102536.06;7722475;22;20265;-65
2024/04/22 05:31:50;;;;;;;2.50;2.27;;;;;;;4.31;100.00;102530.03;7698348;22;20274;-65
2024/04/22 05:38:53;;;;;;;6.70;2.67;;;;;;;4.23;100.00;102533.91;7722109;22;20411;-65
2024/04/22 05:42:15;;;;;;;1.67;1.57;;;;;;;4.29;100.00;102526.53;7712735;22;20269;-65
2024/04/22 05:45:38;;;;;;;5.40;1.93;;;;;;;4.41;100.00;102533.22;7702020;22;20274;-64
2024/04/22 05:49:00;;;;;;;3.27;2.47;;;;;;;4.20;100.00;102526.88;7713204;22;20270;-67
2024/04/22 05:52:25;;;;;;;2.07;1.97;;;;;;;4.12;100.00;102528.06;7705006;22;20561;-67
2024/04/22 05:55:47;;;;;;;3.20;2.30;;;;;;;4.30;100.00;102517.59;7710948;22;20630;-65
2024/04/22 05:59:09;;;;;;;3.10;2.63;;;;;;;4.70;100.00;102517.84;7718359;22;20447;-66
2024/04/22 06:02:31;;;;;;;2.57;2.37;;;;;;;4.65;100.00;102510.97;7706487;22;20266;-67
2024/04/22 06:05:51;;;;;;;1.70;1.60;;;;;;;4.70;100.00;102508.97;7706484;22;20286;-65
2024/04/22 06:09:22;;;;;;;1.60;1.50;;;;;;;4.79;100.00;102506.84;7717558;22;20269;-65
2024/04/22 06:12:44;;;;;;;5.27;2.83;;;;;;;4.77;100.00;102500.69;7710873;22;20273;-66
2024/04/22 06:16:06;;;;;;;5.60;2.20;;;;;;;4.43;100.00;102504.66;7702772;22;20281;-66
2024/04/22 06:19:31;;;;;;;2.73;2.50;;;;;;;4.59;100.00;102501.34;7697015;22;20258;-67
2024/04/22 06:22:51;;;;;;;3.50;2.40;;;;;;;4.69;100.00;102501.91;7702264;22;26595;-67
2024/04/22 06:26:16;;;;;;;2.67;2.13;;;;;;;4.72;100.00;102510.66;7711765;22;20266;-69
2024/04/22 06:29:38;;;;;;;1.77;1.67;;;;;;;4.55;100.00;102513.09;7718045;22;20507;-68
2024/04/22 06:32:58;;;;;;;2.10;1.90;;;;;;;4.91;100.00;102505.47;7710071;22;20482;-68
2024/04/22 06:36:20;;;;;;;2.30;2.00;;;;;;;4.81;100.00;102507.63;7710655;22;20576;-64
2024/04/22 06:39:42;;;;;;;2.13;1.90;;;;;;;5.00;100.00;102509.56;7718813;22;20281;-66
2024/04/22 06:43:07;;;;;;;2.83;1.80;;;;;;;5.09;100.00;102511.91;7713171;22;20266;-67
2024/04/22 06:46:29;;;;;;;2.00;1.87;;;;;;;5.19;100.00;102514.16;7702254;22;20261;-66
2024/04/22 06:49:52;;;;;;;2.10;1.63;;;;;;;5.21;100.00;102512.28;7715123;22;20277;-63
2024/04/22 06:53:14;;;;;;;2.23;1.50;;;;;;;4.96;100.00;102508.84;7715479;22;20318;-65
2024/04/22 06:56:37;;;;;;;3.27;1.90;;;;;;;4.98;100.00;102504.31;7710097;22;20262;-67
2024/04/22 06:59:59;;;;;;;3.77;1.77;;;;;;;5.36;100.00;102508.97;7721382;22;20266;-64
2024/04/22 07:03:21;;;;;;;2.87;1.70;;;;;;;5.51;100.00;102511.00;7713250;22;20273;-65
2024/04/22 07:06:41;;;;;;;2.10;1.87;;;;;;;6.09;100.00;102496.03;7711815;22;20277;-69
2024/04/22 07:10:03;;;;;;;3.47;1.37;;;;;;;5.65;100.00;102500.59;7721321;22;20266;-66
2024/04/22 07:13:26;;;;;;;2.23;1.30;;;;;;;5.47;100.00;102500.50;7720960;22;20278;-67
2024/04/22 07:16:53;;;;;;;1.23;1.23;;;;;;;5.45;100.00;102505.03;7699791;22;20278;-65
2024/04/22 07:20:15;;;;;;;4.23;1.90;;;;;;;5.44;96.14;102504.19;7714760;22;20293;-65
2024/04/22 07:23:35;;;;;;;3.00;1.53;;;;;;;5.53;90.60;102503.78;7713034;22;20270;-67
2024/04/22 07:26:57;;;;;;;1.30;1.20;;;;;;;5.61;90.19;102498.97;7713999;22;20590;-65
2024/04/22 07:30:21;;;;;;;1.53;1.43;;;;;;;5.91;89.75;102499.50;7701725;22;20266;-65
2024/04/22 07:33:43;;;;;;;5.17;1.00;;;;;;;6.17;88.66;102485.88;7717765;22;20333;-64
2024/04/22 07:37:12;;;;;;;1.67;1.50;;;;;;;6.07;87.81;102491.69;7710279;22;20427;-66
2024/04/22 07:40:35;;;;;;;1.73;1.40;;;;;;;5.92;85.74;102492.38;7712412;22;20273;-64
2024/04/22 07:43:55;;;;;;;2.50;1.90;;;;;;;6.18;84.51;102500.09;7719768;22;20274;-65
2024/04/22 07:47:18;;;;;;;1.03;0.97;;;;;;;6.15;81.28;102509.13;7705166;22;20450;-65
2024/04/22 07:50:43;;;;;;;6.90;1.20;;;;;;;5.95;77.13;102502.91;7712254;22;20305;-67
2024/04/22 07:54:05;;;;;;;1.30;1.23;;;;;;;5.59;77.68;102508.03;7718537;22;20638;-66
2024/04/22 07:57:26;;;;;;;1.37;1.27;;;;;;;5.94;79.02;102494.03;7711901;22;20270;-66
2024/04/22 08:00:49;;;;;;;1.90;1.30;;;;;;;5.98;76.96;102495.66;7713249;22;20278;-65
2024/04/22 08:04:12;;;;;;;3.50;1.10;;;;;;;6.63;75.50;102497.16;7712788;22;20266;-67
2024/04/22 08:07:34;;;;;;;1.73;1.27;;;;;;;6.18;71.28;102502.78;7708996;22;20287;-66
2024/04/22 08:10:57;;;;;;;0.90;0.90;;;;;;;6.26;73.96;102497.94;7710673;22;20305;-64
2024/04/22 08:14:19;;;;;;;1.40;1.30;;;;;;;6.37;75.00;102493.84;7722615;22;20998;-64
2024/04/22 08:17:42;;;;;;;1.83;1.03;;;;;;;6.59;73.38;102498.25;7701359;22;20265;-64
2024/04/22 08:21:07;;;;;;;2.20;1.67;;;;;;;6.92;72.70;102485.94;7707777;22;20270;-65
2024/04/22 08:24:29;;;;;;;0.90;0.90;;;;;;;6.65;75.79;102487.22;7722111;22;20582;-64
2024/04/22 08:27:51;;;;;;;2.40;1.60;;;;;;;7.44;77.85;102487.81;7710616;22;20267;-66
2024/04/22 08:31:11;;;;;;;1.57;1.20;;;;;;;7.10;72.49;102490.41;7711429;22;20281;-65
2024/04/22 08:34:34;;;;;;;1.20;1.10;;;;;;;7.42;74.18;102489.69;7723094;22;20274;-65
2024/04/22 08:37:56;;;;;;;1.57;1.47;;;;;;;7.76;75.30;102484.34;7716684;22;20278;-65
2024/04/22 08:41:21;;;;;;;1.53;1.43;;;;;;;8.08;74.33;102486.22;7706216;22;20900;-65
2024/04/22 08:44:41;;;;;;;1.33;1.00;;;;;;;8.19;74.72;102484.78;7719523;22;20337;-67
2024/04/22 08:48:03;;;;;;;2.00;0.90;;;;;;;8.46;71.50;102494.09;7692408;22;20270;-66
2024/04/22 08:51:28;;;;;;;1.40;1.13;;;;;;;8.50;70.30;102479.53;7709974;22;20270;-66
2024/04/22 08:54:48;;;;;;;6.17;1.63;;;;;;;8.36;72.55;102479.44;7724173;22;20274;-67
2024/04/22 08:58:13;;;;;;;1.33;1.23;;;;;;;7.85;74.80;102472.25;7713933;22;20602;-66
2024/04/22 09:01:33;;;;;;;1.33;1.23;;;;;;;7.36;78.10;102484.63;7718665;22;20266;-66
2024/04/22 09:04:56;;;;;;;1.17;1.10;;;;;;;7.93;79.44;102473.59;7720637;22;20456;-66
2024/04/22 09:08:16;;;;;;;1.00;1.00;;;;;;;7.31;81.38;102475.94;7719079;22;20282;-66
2024/04/22 09:11:38;;;;;;;1.27;1.13;;;;;;;6.83;80.83;102476.50;7692560;22;20274;-66
2024/04/22 09:15:01;;;;;;;2.03;1.93;;;;;;;7.35;82.16;102473.97;7728393;22;20277;-66
2024/04/22 09:18:24;;;;;;;2.07;1.30;;;;;;;7.70;81.12;102465.00;7715813;22;20274;-66
2024/04/22 09:21:43;;;;;;;3.47;1.63;;;;;;;8.17;79.40;102455.34;7714792;22;20317;-67
2024/04/22 09:25:06;;;;;;;2.30;1.37;;;;;;;8.42;77.79;102450.41;7725443;22;20333;-66
2024/04/22 09:28:30;;;;;;;1.63;1.30;;;;;;;8.55;76.16;102451.44;7723769;22;20262;-66
2024/04/22 09:31:57;;;;;;;2.20;1.47;;;;;;;8.31;75.84;102452.81;7702201;22;20266;-66
2024/04/22 09:35:21;;;;;;;1.70;1.20;;;;;;;8.93;75.75;102449.31;7721229;22;20590;-66
2024/04/22 09:38:43;;;;;;;1.60;1.50;;;;;;;8.72;77.36;102440.63;7729574;22;20310;-67
2024/04/22 09:42:06;;;;;;;1.60;1.50;;;;;;;8.53;77.72;102449.81;7714527;22;20278;-65
2024/04/22 09:45:28;;;;;;;2.13;1.63;;;;;;;8.57;77.87;102446.84;7713396;22;20856;-66
2024/04/22 09:48:51;;;;;;;2.33;1.90;;;;;;;8.40;76.85;102451.44;7725933;22;20297;-66
2024/04/22 09:52:14;;;;;;;2.57;2.07;;;;;;;8.59;77.72;102446.78;7721220;22;20433;-66
2024/04/22 09:55:38;;;;;;;2.27;1.90;;;;;;;8.70;77.21;102436.28;7717676;22;20265;-66
2024/04/22 09:59:00;;;;;;;1.43;1.17;;;;;;;9.80;78.94;102428.91;7709201;22;20536;-66
2024/04/22 10:02:23;;;;;;;1.80;1.50;;;;;;;9.99;76.54;102426.81;7701526;22;20270;-66
2024/04/22 10:05:48;;;;;;;1.67;1.57;;;;;;;9.19;73.97;102437.94;7703188;22;20285;-66
2024/04/22 10:09:08;;;;;;;1.30;1.20;;;;;;;9.18;75.25;102438.03;7722124;22;20610;-66
2024/04/22 10:12:32;;;;;;;1.50;1.40;;;;;;;9.89;74.38;102429.19;7691909;22;20286;-66
2024/04/22 10:15:54;;;;;;;1.47;1.37;;;;;;;10.29;76.32;102439.28;7703659;22;20476;-66
2024/04/22 10:19:13;;;;;;;1.57;1.47;;;;;;;10.36;69.98;102421.78;7719613;22;20270;-66
2024/04/22 10:22:40;;;;;;;2.00;1.43;;;;;;;11.39;70.42;102425.75;7710779;22;20314;-67
2024/04/22 10:26:02;;;;;;;2.83;1.67;;;;;;;11.14;67.15;102425.66;7706450;22;20278;-65
2024/04/22 10:29:24;;;;;;;1.93;1.80;;;;;;;10.70;66.64;102419.63;7716822;22;20274;-65
2024/04/22 10:32:47;;;;;;;1.67;1.53;;;;;;;10.33;65.92;102416.56;7704180;22;20262;-66
2024/04/22 10:36:10;;;;;;;4.00;1.90;;;;;;;11.31;65.42;102420.00;7713260;22;20274;-68
2024/04/22 10:39:35;;;;;;;1.40;1.30;;;;;;;11.37;62.00;102411.47;7739302;22;20281;-67
2024/04/22 10:42:58;;;;;;;4.07;1.83;;;;;;;10.68;59.89;102408.91;7711724;22;20500;-65
2024/04/22 10:46:20;;;;;;;2.83;2.03;;;;;;;10.93;59.36;102400.09;7703054;22;20289;-67
2024/04/22 10:49:44;;;;;;;4.40;1.60;;;;;;;12.07;60.96;102404.81;7720204;22;20322;-67
2024/04/22 10:53:06;;;;;;;6.33;5.70;;;;;;;11.87;58.35;102383.72;7718437;22;20266;-67
2024/04/22 10:56:33;;;;;;;2.30;1.57;;;;;;;11.60;58.55;102381.06;7715456;22;20262;-65
2024/04/22 10:59:56;;;;;;;3.47;1.80;;;;;;;12.39;60.07;102373.63;7723243;22;20325;-66
2024/04/22 11:03:17;;;;;;;2.17;1.60;;;;;;;13.23;59.75;102368.25;7720575;22;20282;-67
2024/04/22 11:06:40;;;;;;;2.77;1.83;;;;;;;12.08;57.70;102378.66;7712049;22;20321;-66
2024/04/22 11:10:04;;;;;;;1.27;1.17;;;;;;;10.49;60.16;102373.34;7719456;22;20313;-65
2024/04/22 11:13:26;;;;;;;2.13;1.93;;;;;;;11.37;61.85;102373.69;7722918;22;20294;-65
2024/04/22 11:16:48;;;;;;;2.20;2.00;;;;;;;10.43;59.18;102377.28;7715096;22;20267;-64
2024/04/22 11:20:13;;;;;;;1.73;1.63;;;;;;;10.56;60.92;102368.38;7708734;22;20309;-66
2024/04/22 11:23:35;;;;;;;3.50;1.77;;;;;;;11.21;59.59;102367.59;7720157;22;20277;-65
2024/04/22 11:26:56;;;;;;;3.67;1.97;;;;;;;11.33;60.05;102372.16;7710070;22;20289;-64
2024/04/22 11:30:21;;;;;;;2.10;1.90;;;;;;;11.28;63.95;102372.47;7705889;22;20270;-66
2024/04/22 11:33:41;;;;;;;1.90;1.80;;;;;;;11.39;73.65;102374.44;7715667;22;20273;-66
2024/04/22 11:37:03;;;;;;;3.07;2.83;;;;;;;11.17;81.04;102379.56;7702615;22;20266;-66
2024/04/22 11:40:28;;;;;;;4.13;3.73;;;;;;;10.81;84.27;102380.19;7713466;22;20971;-66
2024/04/22 11:43:50;;;;;;;2.77;2.57;;;;;;;10.81;86.24;102369.38;7724866;22;20444;-65
2024/04/22 11:47:13;;;;;;;2.53;2.33;;;;;;;12.14;86.03;102364.69;7718129;22;20747;-64
2024/04/22 11:50:35;;;;;;;2.23;2.00;;;;;;;13.65;79.45;102356.84;7706036;22;20985;-66
2024/04/22 11:53:58;;;;;;;2.57;1.80;;;;;;;15.30;68.52;102357.69;7721051;22;20961;-66
2024/04/22 11:57:20;;;;;;;1.80;1.70;;;;;;;15.98;62.35;102355.31;7712999;22;20278;-65
2024/04/22 12:00:40;;;;;;;2.10;1.90;;;;;;;17.21;58.40;102350.41;7715560;22;20459;-65
2024/04/22 12:04:05;;;;;;;2.33;2.13;;;;;;;17.83;51.25;102349.09;7719956;22;20278;-66
2024/04/22 12:07:28;;;;;;;2.57;1.97;;;;;;;16.60;53.30;102352.47;7706926;22;20281;-65
2024/04/22 12:10:48;;;;;;;4.03;2.20;;;;;;;17.89;48.68;102343.03;7709841;22;20262;-66
2024/04/22 12:14:11;;;;;;;4.37;3.60;;;;;;;18.79;43.29;102333.19;7725019;22;20270;-66
2024/04/22 12:17:33;;;;;;;10.87;7.00;;;;;;;20.33;41.07;102337.06;7698603;22;20259;-63
2024/04/22 12:20:57;;;;;;;2.15;2.03;;;;;;;20.81;37.52;102335.53;7718202;22;20278;-64
2024/04/22 12:24:20;;;;;;;1.70;1.45;;;;;;;20.69;35.18;102330.34;7722283;22;20273;-64
2024/04/22 12:27:42;;;;;;;1.83;1.73;;;;;;;21.68;35.32;102320.22;7709803;22;20262;-64
2024/04/22 12:31:02;;;;;;;1.65;1.55;;;;;;;23.60;32.17;102314.84;7712974;22;20266;-66
2024/04/22 12:34:24;;;;;;;2.53;1.70;;;;;;;21.89;32.28;102317.81;7721562;22;20270;-67
2024/04/22 12:37:50;;;;;;;2.17;1.63;;;;;;;21.99;32.20;102309.34;7713629;22;20262;-65
2024/04/22 12:41:10;;;;;;;1.80;1.70;;;;;;;22.10;31.49;102304.38;7713749;22;20576;-65
2024/04/22 12:44:32;;;;;;;2.55;2.22;;;;;;;22.27;30.96;102313.41;7722154;22;20313;-66
2024/04/22 12:51:33;;;;;;;2.45;1.95;;;;;;;22.15;31.16;102296.44;7711800;22;20269;-68
2024/04/22 12:54:58;;;;;;;14.40;13.00;;;;;;;23.74;29.65;102291.97;7722809;22;20270;-66
2024/04/22 12:58:21;;;;;;;2.55;1.90;;;;;;;22.62;29.48;102288.19;7720687;22;20574;-67
2024/04/22 13:01:43;;;;;;;1.75;1.65;;;;;;;18.28;35.59;102295.47;7713785;22;20277;-66
2024/04/22 13:05:06;;;;;;;3.08;1.98;;;;;;;16.96;38.62;102298.34;7720539;22;20267;-67
2024/04/22 13:08:29;;;;;;;2.15;1.67;;;;;;;15.15;42.85;102300.06;7722101;22;20286;-67
2024/04/22 13:11:54;;;;;;;3.47;1.83;;;;;;;14.74;51.03;102293.69;7710706;22;20282;-67
2024/04/22 13:15:16;;;;;;;2.50;2.30;;;;;;;15.06;57.14;102291.84;7706401;22;20294;-66
2024/04/22 13:18:38;;;;;;;1.80;1.60;;;;;;;16.83;47.88;102281.41;7723929;22;20843;-66
2024/04/22 13:22:01;;;;;;;2.40;1.80;;;;;;;14.80;52.64;102294.06;7716363;22;20441;-64
2024/04/22 13:25:21;;;;;;;2.10;1.90;;;;;;;13.84;57.25;102293.91;7722131;22;20574;-66
2024/04/22 13:28:49;;;;;;;7.07;5.80;;;;;;;13.02;65.28;102289.50;7719257;22;20273;-67
2024/04/22 13:32:09;;;;;;;5.33;4.83;;;;;;;12.29;70.56;102290.56;7712092;22;20318;-65
2024/04/22 13:35:31;;;;;;;3.23;2.40;;;;;;;13.13;69.28;102286.88;7716564;22;21040;-62
2024/04/22 13:38:53;;;;;;;2.60;2.23;;;;;;;12.71;68.61;102284.69;7725944;22;20270;-65
2024/04/22 13:42:16;;;;;;;1.73;1.63;;;;;;;12.34;67.88;102300.09;7736482;22;20265;-65
2024/04/22 13:45:38;;;;;;;2.13;1.93;;;;;;;12.11;69.25;102295.50;7710287;22;20282;-65
2024/04/22 13:49:00;;;;;;;2.03;1.87;;;;;;;11.54;78.48;102284.25;7724634;22;20266;-65
2024/04/22 13:52:20;;;;;;;1.70;1.60;;;;;;;11.64;84.41;102289.91;7718204;22;20277;-66
2024/04/22 13:55:42;;;;;;;2.13;2.03;;;;;;;12.37;84.44;102296.31;7716206;22;20274;-66
2024/04/22 13:59:01;;;;;;;1.67;1.57;;;;;;;15.10;75.83;102285.16;7728023;22;20277;-64
2024/04/22 14:02:26;;;;;;;3.00;2.13;;;;;;;16.24;64.89;102292.28;7704383;22;20265;-63
2024/04/22 14:05:49;;;;;;;1.37;1.27;;;;;;;17.74;57.04;102288.09;7710581;22;20281;-68
2024/04/22 14:09:09;;;;;;;2.67;2.00;;;;;;;17.58;53.41;102290.56;7715968;22;20278;-65
2024/04/22 14:12:31;;;;;;;4.23;3.77;;;;;;;16.08;59.68;102292.81;7709858;22;20314;-65
2024/04/22 14:15:51;;;;;;;2.40;2.20;;;;;;;16.65;55.74;102290.28;7712632;22;20277;-66
2024/04/22 14:19:16;;;;;;;2.77;1.77;;;;;;;17.49;55.04;102294.13;7717201;22;20812;-64
2024/04/22 14:22:38;;;;;;;2.00;1.90;;;;;;;16.99;56.49;102289.88;7707571;22;20577;-68
2024/04/22 14:25:59;;;;;;;1.97;1.87;;;;;;;15.28;60.99;102293.56;7711429;22;20274;-65
2024/04/22 14:29:21;;;;;;;6.93;6.07;;;;;;;16.02;61.41;102300.66;7722407;22;20273;-64
2024/04/22 14:32:43;;;;;;;1.90;1.80;;;;;;;16.43;58.02;102298.66;7710647;22;20269;-65
2024/04/22 14:36:06;;;;;;;6.70;6.10;;;;;;;15.73;59.22;102293.19;7711172;22;20266;-66
2024/04/22 14:39:28;;;;;;;4.00;3.67;;;;;;;14.30;63.85;102306.38;7725240;22;20624;-65
2024/04/22 14:42:50;;;;;;;2.13;1.57;;;;;;;15.13;64.87;102295.75;7707310;22;20261;-65
2024/04/22 14:46:10;;;;;;;2.20;2.03;;;;;;;15.30;62.16;102300.63;7726273;22;20278;-65
2024/04/22 14:49:35;;;;;;;6.53;5.07;;;;;;;15.42;62.57;102299.53;7725866;22;20274;-66
2024/04/22 14:52:58;;;;;;;2.23;1.23;;;;;;;14.94;63.30;102301.00;7716507;22;20456;-64
2024/04/22 14:56:21;;;;;;;4.37;1.30;;;;;;;14.47;62.80;102299.56;7710820;22;20275;-65
2024/04/22 14:59:40;;;;;;;1.97;1.53;;;;;;;14.42;63.13;102304.50;7709918;22;20266;-64
2024/04/22 15:03:02;;;;;;;1.73;1.10;;;;;;;14.24;63.40;102304.13;7719175;22;20269;-65
2024/04/22 15:06:24;;;;;;;1.63;0.90;;;;;;;14.22;61.80;102297.09;7723472;22;20618;-63
2024/04/22 15:09:49;;;;;;;2.03;1.33;;;;;;;14.08;62.09;102306.34;7722364;22;20622;-63
2024/04/22 15:13:12;;;;;;;1.43;1.10;;;;;;;13.98;63.95;102294.50;7715981;22;20317;-64
2024/04/22 15:16:34;;;;;;;1.53;1.43;;;;;;;13.47;66.10;102294.13;7698763;22;20266;-65
2024/04/22 15:19:54;;;;;;;3.57;1.40;;;;;;;13.13;69.30;102295.00;7699208;22;20960;-63
2024/04/22 15:23:16;;;;;;;1.50;1.40;;;;;;;13.46;71.43;102291.50;7745740;22;20265;-64
2024/04/22 15:26:38;;;;;;;1.40;1.30;;;;;;;13.28;67.50;102293.81;7714922;22;20500;-64
2024/04/22 15:30:01;;;;;;;1.30;1.20;;;;;;;13.06;79.97;102287.47;7715283;22;20274;-63
2024/04/22 15:33:23;;;;;;;1.03;1.03;;;;;;;13.61;100.00;102277.63;7716836;22;20537;-65
2024/04/22 15:36:46;;;;;;;2.43;1.23;;;;;;;14.53;98.57;102281.91;7713015;22;20273;-64
2024/04/22 15:40:10;;;;;;;1.30;1.20;;;;;;;14.14;85.18;102277.88;7721016;22;20269;-66
2024/04/22 15:43:41;;;;;;;1.60;1.17;;;;;;;13.74;85.51;102276.66;7724772;22;20277;-65
2024/04/22 15:47:04;;;;;;;2.00;1.80;;;;;;;13.81;79.34;102276.03;7693393;22;20262;-64
2024/04/22 15:50:26;;;;;;;1.63;1.50;;;;;;;14.54;79.04;102276.34;7715632;22;20968;-65
2024/04/22 15:53:48;;;;;;;1.93;1.20;;;;;;;15.00;79.65;102268.78;7723545;22;20278;-65